Alliance, Ohio
Current Conditions -  °F | °C
As of 1:51 PM on Friday 31 Oct 2014 (Local Time) from KCAK Reporting Station
Overcast Overcast  
Wind Chill: 44°   Ceiling: 3500
Heat Index: 47°   Visibility: 10mi
Dew Point: 37°   Wind: 7mph
Humidity: 68%   Direction: 200°SSW
Pressure: 29.86"   Gusts: NA
Location:  40.92°N, 81.1°W
Report Text: KCAK 311751Z 20006KT 10SM BKN035 OVC055 08/03 A2986 RMK AO2 SLP117 T00830028 10089 20061 58019
Loading
Personal Weather Stations






























Interactive Weather Map New forecast layout! Learn more

10-Day Weather Forecast

Advertisements
Track Severe Weather on mobile